Time;durP1;ratioP1;P1;durP2;ratioP2;P2;SDS_P1;SDS_P2;PMS_P1;PMS_P2;Temp;Humidity;BMP_temperature;BMP_pressure;BME280_temperature;BME280_humidity;BME280_pressure;Samples;Min_cycle;Max_cycle;Signal;HPM_P1;HPM_P2
2022/01/11 00:00:20;;;;;;;22.77;16.40;;;;;;;2.09;100.00;151903.94;4988630;28;20808;-76
2022/01/11 00:02:57;;;;;;;27.97;17.77;;;;;;;2.12;100.00;151910.44;4993510;28;20812;-76
2022/01/11 00:05:37;;;;;;;26.33;17.70;;;;;;;2.12;100.00;151911.69;4992114;28;20473;-76
2022/01/11 00:08:14;;;;;;;25.70;17.07;;;;;;;2.12;100.00;151911.69;4993056;28;20464;-76
2022/01/11 00:10:53;;;;;;;21.80;13.80;;;;;;;2.14;100.00;151915.56;4994449;28;20435;-76
2022/01/11 00:13:28;;;;;;;28.03;16.00;;;;;;;2.15;100.00;151918.09;4992342;28;20471;-76
2022/01/11 00:16:05;;;;;;;18.33;14.27;;;;;;;2.14;100.00;151916.84;4993306;28;20887;-76
2022/01/11 00:18:42;;;;;;;20.60;14.80;;;;;;;2.15;100.00;151919.41;4978589;28;20445;-76
2022/01/11 00:21:18;;;;;;;21.60;15.33;;;;;;;2.17;100.00;151924.53;4979180;28;20451;-76
2022/01/11 00:26:46;;;;;;;22.80;15.73;;;;;;;2.18;100.00;151927.13;4993735;28;20480;-76
2022/01/11 00:29:22;;;;;;;26.43;14.87;;;;;;;2.21;100.00;151933.53;4992884;28;20437;-76
2022/01/11 00:32:03;;;;;;;23.27;16.50;;;;;;;2.25;100.00;151945.09;4977708;28;20447;-76
2022/01/11 00:34:48;;;;;;;23.90;15.50;;;;;;;2.19;100.00;151929.72;4975138;28;20546;-76
2022/01/11 00:37:23;;;;;;;22.50;15.60;;;;;;;2.10;100.00;151905.25;4974039;28;20506;-76
2022/01/11 00:40:00;;;;;;;32.00;17.40;;;;;;;2.07;100.00;151898.81;4977861;28;20441;-76
2022/01/11 00:42:36;;;;;;;26.80;17.03;;;;;;;2.06;100.00;151896.28;4977430;28;20804;-76
2022/01/11 00:45:13;;;;;;;20.17;15.77;;;;;;;2.04;100.00;151891.09;4992667;28;20815;-76
2022/01/11 00:47:49;;;;;;;23.83;16.67;;;;;;;2.10;100.00;151905.25;4982488;28;20803;-75
2022/01/11 00:50:26;;;;;;;25.07;17.30;;;;;;;2.05;100.00;151893.69;4957710;28;20433;-75
2022/01/11 00:53:02;;;;;;;24.27;16.83;;;;;;;2.05;100.00;151893.69;4977814;28;20467;-75
2022/01/11 00:55:38;;;;;;;29.50;18.23;;;;;;;2.03;100.00;151888.56;4983915;28;20439;-75
2022/01/11 00:58:15;;;;;;;25.70;16.90;;;;;;;2.04;100.00;151889.84;4973661;28;20429;-75
2022/01/11 01:00:51;;;;;;;25.50;16.97;;;;;;;1.99;100.00;151878.25;4983534;28;20538;-76
2022/01/11 01:03:26;;;;;;;23.23;16.10;;;;;;;1.99;100.00;151878.25;4991972;28;20479;-75
2022/01/11 01:06:05;;;;;;;26.20;16.80;;;;;;;1.99;100.00;151878.25;4976951;28;20450;-76
2022/01/11 01:08:41;;;;;;;21.83;16.50;;;;;;;2.00;100.00;151879.56;4971172;28;20947;-75
2022/01/11 01:11:19;;;;;;;26.90;16.67;;;;;;;2.01;100.00;151882.13;4957700;28;20451;-75
2022/01/11 01:13:56;;;;;;;24.33;15.13;;;;;;;2.03;100.00;151887.25;4973492;28;20474;-75
2022/01/11 01:16:32;;;;;;;24.10;16.57;;;;;;;2.01;100.00;151883.44;4965190;28;20441;-75
2022/01/11 01:19:13;;;;;;;27.43;17.53;;;;;;;2.03;100.00;151887.25;4974717;28;20448;-75
2022/01/11 01:21:53;;;;;;;27.67;17.43;;;;;;;2.03;100.00;151888.56;4970625;28;20498;-75
2022/01/11 01:24:28;;;;;;;21.90;15.73;;;;;;;2.04;100.00;151889.84;4976889;28;20440;-75
2022/01/11 01:27:04;;;;;;;26.17;16.80;;;;;;;2.07;100.00;151898.81;4990466;28;20462;-75
2022/01/11 01:29:41;;;;;;;23.97;17.03;;;;;;;2.16;100.00;151920.69;4975109;28;20455;-75
2022/01/11 01:32:16;;;;;;;27.70;16.97;;;;;;;2.07;100.00;151898.81;4971064;28;20442;-75
2022/01/11 01:34:52;;;;;;;28.23;18.00;;;;;;;2.01;100.00;151883.44;4977533;28;20427;-75
2022/01/11 01:37:30;;;;;;;25.00;17.60;;;;;;;1.98;100.00;151874.41;4992492;28;20448;-75
2022/01/11 01:40:07;;;;;;;25.10;17.57;;;;;;;1.94;100.00;151865.41;4993057;28;20454;-75
2022/01/11 01:42:43;;;;;;;21.70;16.43;;;;;;;1.94;100.00;151864.09;4973283;28;20460;-75
2022/01/11 01:45:23;;;;;;;25.13;19.10;;;;;;;1.96;100.00;151869.28;4957586;28;20460;-75
2022/01/11 01:47:59;;;;;;;26.57;18.17;;;;;;;1.99;100.00;151876.97;4976241;28;20439;-75
2022/01/11 01:50:35;;;;;;;23.00;15.70;;;;;;;1.98;100.00;151874.41;4991534;28;20451;-75
2022/01/11 01:53:14;;;;;;;27.13;17.03;;;;;;;1.91;100.00;151856.44;4991931;28;20471;-75
2022/01/11 01:55:50;;;;;;;27.50;18.00;;;;;;;1.88;100.00;151849.97;4976282;28;20449;-75
2022/01/11 01:58:26;;;;;;;25.83;18.03;;;;;;;1.83;100.00;151837.13;4990771;28;21037;-75
2022/01/11 02:01:04;;;;;;;24.80;16.53;;;;;;;1.83;100.00;151837.13;4975621;28;20444;-75
2022/01/11 02:03:40;;;;;;;27.80;18.17;;;;;;;1.83;100.00;151838.41;5007945;28;20449;-75
2022/01/11 02:06:18;;;;;;;24.73;17.30;;;;;;;1.88;100.00;151849.97;4977009;28;20959;-75
2022/01/11 02:08:55;;;;;;;27.07;19.83;;;;;;;1.91;100.00;151856.44;4977279;28;20760;-76
2022/01/11 02:11:32;;;;;;;25.47;17.17;;;;;;;1.91;100.00;151856.44;4976915;28;20439;-75
2022/01/11 02:14:09;;;;;;;26.33;17.80;;;;;;;1.92;100.00;151858.97;4976356;28;20480;-75
2022/01/11 02:16:44;;;;;;;26.70;18.20;;;;;;;1.92;100.00;151860.28;4976320;28;20443;-75
2022/01/11 02:19:21;;;;;;;26.70;18.63;;;;;;;1.93;100.00;151862.88;4976358;28;20445;-75
2022/01/11 02:21:59;;;;;;;27.90;17.70;;;;;;;1.95;100.00;151868.00;4974708;28;20558;-75
2022/01/11 02:24:35;;;;;;;27.00;18.60;;;;;;;1.98;100.00;151875.72;4977078;28;20434;-75
2022/01/11 02:27:13;;;;;;;26.90;17.97;;;;;;;1.96;100.00;151870.53;4977508;28;20785;-75
2022/01/11 02:29:51;;;;;;;26.43;17.43;;;;;;;1.98;100.00;151874.41;4976760;28;20524;-75
2022/01/11 02:32:26;;;;;;;27.70;18.33;;;;;;;1.99;100.00;151878.25;4992643;28;20435;-75
2022/01/11 02:35:02;;;;;;;29.50;20.13;;;;;;;2.01;100.00;151883.44;4976368;28;20562;-75
2022/01/11 02:37:43;;;;;;;28.47;18.80;;;;;;;1.98;100.00;151875.72;4994397;28;20446;-74
2022/01/11 02:40:23;;;;;;;29.23;17.83;;;;;;;1.96;100.00;151870.53;4979058;28;20438;-75
2022/01/11 02:42:58;;;;;;;23.90;17.80;;;;;;;1.93;100.00;151861.56;4976092;28;20442;-75
2022/01/11 02:45:34;;;;;;;29.10;18.10;;;;;;;1.90;100.00;151855.16;4969940;28;20807;-75
2022/01/11 02:48:10;;;;;;;28.60;18.07;;;;;;;1.87;100.00;151846.13;4961415;28;20436;-75
2022/01/11 02:50:46;;;;;;;28.13;19.40;;;;;;;1.89;100.00;151851.25;4968748;28;20447;-75
2022/01/11 02:53:24;;;;;;;27.50;16.90;;;;;;;1.87;100.00;151847.41;4960486;28;20474;-75
2022/01/11 02:56:02;;;;;;;24.17;17.50;;;;;;;1.87;100.00;151847.41;4961332;28;20460;-75
2022/01/11 02:58:40;;;;;;;26.20;17.83;;;;;;;1.89;100.00;151852.56;4964925;28;20587;-75
2022/01/11 03:01:17;;;;;;;26.30;18.03;;;;;;;1.89;100.00;151852.56;4979997;28;20454;-75
2022/01/11 03:03:54;;;;;;;28.63;19.50;;;;;;;1.87;100.00;151846.13;4980304;28;20436;-75
2022/01/11 03:06:32;;;;;;;30.50;18.50;;;;;;;1.87;100.00;151847.41;4979906;28;20489;-75
2022/01/11 03:09:09;;;;;;;27.37;18.73;;;;;;;1.83;100.00;151838.41;4978788;28;20455;-75
2022/01/11 03:11:47;;;;;;;29.57;19.30;;;;;;;1.84;100.00;151839.72;4978299;28;20482;-76
2022/01/11 03:14:23;;;;;;;27.03;18.50;;;;;;;1.86;100.00;151844.84;4979499;28;20491;-75
2022/01/11 03:17:01;;;;;;;25.80;17.93;;;;;;;1.86;100.00;151844.84;4974919;28;20454;-75
2022/01/11 03:19:37;;;;;;;23.30;17.33;;;;;;;1.85;100.00;151843.53;4979092;28;20449;-75
2022/01/11 03:22:12;;;;;;;29.43;18.00;;;;;;;1.85;100.00;151842.28;4980227;28;20455;-75
2022/01/11 03:24:49;;;;;;;26.30;17.73;;;;;;;1.86;100.00;151844.84;4979854;28;20530;-75
2022/01/11 03:27:25;;;;;;;28.33;18.07;;;;;;;1.85;100.00;151843.53;4994641;28;20837;-76
2022/01/11 03:30:00;;;;;;;25.33;18.93;;;;;;;1.90;100.00;151855.16;4974659;28;20448;-76
2022/01/11 03:32:37;;;;;;;28.93;17.90;;;;;;;1.91;100.00;151856.44;4975024;28;20511;-75
2022/01/11 03:35:21;;;;;;;27.00;18.47;;;;;;;1.88;100.00;151848.72;4959632;28;20978;-75
2022/01/11 03:37:58;;;;;;;25.50;18.17;;;;;;;1.85;100.00;151842.28;4972341;28;20539;-75
2022/01/11 03:40:36;;;;;;;25.50;17.07;;;;;;;1.85;100.00;151842.28;4975126;28;20456;-75
2022/01/11 03:43:14;;;;;;;29.03;18.23;;;;;;;1.83;100.00;151837.13;4979442;28;20431;-75
2022/01/11 03:45:50;;;;;;;23.77;16.93;;;;;;;1.82;100.00;151834.56;4985254;28;20550;-75
2022/01/11 03:48:27;;;;;;;28.33;18.80;;;;;;;1.83;100.00;151837.13;4978420;28;20979;-75
2022/01/11 03:51:04;;;;;;;27.90;17.90;;;;;;;1.86;100.00;151844.84;4978708;28;20443;-76
2022/01/11 03:53:55;;;;;;;24.30;16.37;;;;;;;1.88;100.00;151849.97;4978674;28;20466;-75
2022/01/11 03:56:35;;;;;;;25.30;17.67;;;;;;;1.85;100.00;151842.28;4970498;28;20491;-75
2022/01/11 03:59:18;;;;;;;25.60;18.67;;;;;;;1.84;100.00;151839.72;4960507;28;20451;-75
2022/01/11 04:01:53;;;;;;;27.53;18.40;;;;;;;1.92;100.00;151860.28;4961026;28;20456;-75
2022/01/11 04:04:29;;;;;;;32.43;19.97;;;;;;;2.00;100.00;151880.84;4963091;28;20440;-75
2022/01/11 04:07:05;;;;;;;31.30;20.40;;;;;;;2.03;100.00;151887.25;4993496;28;20478;-75
2022/01/11 04:09:41;;;;;;;29.50;19.53;;;;;;;2.01;100.00;151883.44;4994266;28;20439;-75
2022/01/11 04:12:18;;;;;;;26.57;19.30;;;;;;;1.91;100.00;151857.69;4993427;28;20542;-75
2022/01/11 04:14:54;;;;;;;29.13;20.17;;;;;;;1.86;100.00;151844.84;4977223;28;20854;-75
2022/01/11 04:17:30;;;;;;;31.67;19.43;;;;;;;1.83;100.00;151837.13;4979014;28;20448;-75
2022/01/11 04:20:06;;;;;;;29.73;20.00;;;;;;;1.85;100.00;151842.28;4977552;28;20464;-76
2022/01/11 04:22:44;;;;;;;28.03;20.50;;;;;;;1.82;100.00;151834.56;4977148;28;20982;-75
2022/01/11 04:25:19;;;;;;;34.50;20.23;;;;;;;1.80;100.00;151830.69;4978755;28;20430;-75
2022/01/11 04:27:57;;;;;;;28.60;18.87;;;;;;;1.81;100.00;151833.28;4977592;28;20446;-75
2022/01/11 04:30:34;;;;;;;35.37;20.87;;;;;;;1.77;100.00;151821.72;4978458;28;20473;-75
2022/01/11 04:33:10;;;;;;;30.90;19.00;;;;;;;1.70;100.00;151803.69;4977461;28;20482;-75
2022/01/11 04:35:48;;;;;;;31.90;20.03;;;;;;;1.78;100.00;151824.25;4975780;28;20435;-76
2022/01/11 04:38:27;;;;;;;29.70;20.90;;;;;;;1.81;100.00;151832.00;4962895;28;20478;-76
2022/01/11 04:41:03;;;;;;;30.47;20.07;;;;;;;1.85;100.00;151842.28;4977795;28;20458;-76
2022/01/11 04:44:00;;;;;;;34.50;20.17;;;;;;;1.81;100.00;151833.28;4975243;28;20438;-76
2022/01/11 04:46:37;;;;;;;35.13;19.93;;;;;;;1.81;100.00;151832.00;4975070;28;20453;-77
2022/01/11 04:49:13;;;;;;;29.47;21.20;;;;;;;1.74;100.00;151814.00;4957948;28;20797;-74
2022/01/11 04:51:49;;;;;;;27.23;17.50;;;;;;;1.82;100.00;151834.56;4955129;28;20439;-75
2022/01/11 04:54:25;;;;;;;28.63;20.33;;;;;;;1.97;100.00;151873.13;4954427;28;20839;-75
2022/01/11 04:57:01;;;;;;;29.33;19.30;;;;;;;1.84;100.00;151839.72;4950544;28;20455;-75
2022/01/11 04:59:39;;;;;;;32.80;21.13;;;;;;;1.84;100.00;151839.72;4957425;28;20438;-75
2022/01/11 05:02:17;;;;;;;34.23;20.90;;;;;;;1.89;100.00;151852.56;4941220;28;20549;-75
2022/01/11 05:04:54;;;;;;;30.43;19.80;;;;;;;1.91;100.00;151856.44;4959464;28;20540;-75
2022/01/11 05:07:29;;;;;;;27.90;20.03;;;;;;;1.91;100.00;151857.69;4973681;28;20489;-75
2022/01/11 05:10:06;;;;;;;31.37;20.73;;;;;;;1.98;100.00;151875.72;4957535;28;20441;-75
2022/01/11 05:12:42;;;;;;;34.50;22.60;;;;;;;1.95;100.00;151866.69;4974110;28;20493;-74
2022/01/11 05:15:19;;;;;;;29.87;21.00;;;;;;;2.04;100.00;151889.84;4984517;28;20469;-75
2022/01/11 05:17:57;;;;;;;28.37;19.33;;;;;;;1.98;100.00;151874.41;4976935;28;20438;-75
2022/01/11 05:20:34;;;;;;;26.20;19.80;;;;;;;1.97;100.00;151871.81;4977662;28;20781;-75
2022/01/11 05:23:10;;;;;;;29.23;20.20;;;;;;;1.93;100.00;151862.88;4976629;28;20496;-75
2022/01/11 05:25:46;;;;;;;28.17;20.33;;;;;;;1.96;100.00;151870.53;4991633;28;20978;-75
2022/01/11 05:28:22;;;;;;;31.93;20.23;;;;;;;1.97;100.00;151871.81;4974864;28;20953;-75
2022/01/11 05:30:59;;;;;;;33.33;20.20;;;;;;;1.97;100.00;151873.13;4976505;28;20451;-76
2022/01/11 05:33:35;;;;;;;29.17;19.80;;;;;;;1.99;100.00;151878.25;4976561;28;20436;-76
2022/01/11 05:36:11;;;;;;;30.17;21.37;;;;;;;1.93;100.00;151861.56;4988633;28;20907;-76
2022/01/11 05:38:47;;;;;;;30.80;20.17;;;;;;;1.95;100.00;151866.69;4972212;28;20455;-76
2022/01/11 05:41:23;;;;;;;31.03;22.23;;;;;;;2.00;100.00;151879.56;4971869;28;20457;-76
2022/01/11 05:43:58;;;;;;;28.90;20.17;;;;;;;1.94;100.00;151864.09;4973917;28;20446;-76
2022/01/11 05:46:36;;;;;;;28.57;20.10;;;;;;;1.90;100.00;151855.16;4969512;28;20446;-75
2022/01/11 05:49:11;;;;;;;28.33;19.90;;;;;;;1.91;100.00;151857.69;4977006;28;20809;-75
2022/01/11 05:51:47;;;;;;;37.70;21.03;;;;;;;1.88;100.00;151848.72;4976967;28;20442;-76
2022/01/11 05:54:23;;;;;;;30.80;19.80;;;;;;;1.79;100.00;151826.84;4975999;28;20475;-76
2022/01/11 05:56:59;;;;;;;28.80;20.47;;;;;;;1.86;100.00;151844.84;4973387;28;20916;-75
2022/01/11 05:59:34;;;;;;;30.23;19.63;;;;;;;1.93;100.00;151862.88;4991353;28;20443;-76
2022/01/11 06:02:11;;;;;;;33.10;21.30;;;;;;;1.94;100.00;151865.41;4991369;28;20433;-76
2022/01/11 06:04:47;;;;;;;30.40;21.37;;;;;;;1.92;100.00;151860.28;4991560;28;20823;-76
2022/01/11 06:07:23;;;;;;;31.17;20.00;;;;;;;1.84;100.00;151841.00;4990283;28;20475;-76
2022/01/11 06:09:59;;;;;;;32.50;20.43;;;;;;;1.92;100.00;151860.28;4957168;28;20434;-76
2022/01/11 06:12:34;;;;;;;28.37;20.03;;;;;;;1.91;100.00;151857.69;4965662;28;20441;-76
2022/01/11 06:15:10;;;;;;;27.50;18.63;;;;;;;1.85;100.00;151843.53;4977613;28;20468;-76
2022/01/11 06:17:47;;;;;;;30.70;21.17;;;;;;;1.93;100.00;151862.88;4993732;28;20445;-76
2022/01/11 06:20:23;;;;;;;27.40;20.63;;;;;;;1.92;100.00;151860.28;4993693;28;20464;-76
2022/01/11 06:22:59;;;;;;;25.20;18.70;;;;;;;1.91;100.00;151857.69;4980022;28;20458;-76
2022/01/11 06:25:35;;;;;;;33.17;21.97;;;;;;;1.87;100.00;151847.41;4979663;28;20441;-76
2022/01/11 06:28:10;;;;;;;33.43;20.70;;;;;;;1.71;100.00;151806.28;4979528;28;20446;-76
2022/01/11 06:30:47;;;;;;;31.87;21.37;;;;;;;1.69;100.00;151802.47;4979131;28;20785;-76
2022/01/11 06:33:24;;;;;;;33.00;21.17;;;;;;;1.69;100.00;151801.16;4973769;28;20460;-75
2022/01/11 06:36:00;;;;;;;33.40;21.43;;;;;;;1.72;100.00;151808.88;4994472;28;20546;-76
2022/01/11 06:38:35;;;;;;;30.67;21.53;;;;;;;1.73;100.00;151811.41;4980780;28;20472;-76
2022/01/11 06:41:12;;;;;;;31.13;20.10;;;;;;;1.73;100.00;151812.72;4977981;28;20834;-76
2022/01/11 06:43:50;;;;;;;30.10;19.97;;;;;;;1.72;100.00;151808.88;4978368;28;20702;-76
2022/01/11 06:46:26;;;;;;;30.13;20.93;;;;;;;1.71;100.00;151806.28;4993187;28;20914;-76
2022/01/11 06:49:05;;;;;;;29.70;21.40;;;;;;;1.71;100.00;151806.28;4978906;28;20454;-76
2022/01/11 06:51:41;;;;;;;29.87;19.90;;;;;;;1.69;100.00;151801.16;4960636;28;20806;-75
2022/01/11 06:54:17;;;;;;;32.67;21.00;;;;;;;1.70;100.00;151805.00;4976446;28;20544;-75
2022/01/11 06:56:53;;;;;;;31.80;20.60;;;;;;;1.73;100.00;151812.72;4979557;28;20804;-81
2022/01/11 06:59:29;;;;;;;26.10;20.90;;;;;;;1.73;100.00;151812.72;4979245;28;20457;-75
2022/01/11 07:02:10;;;;;;;31.37;21.00;;;;;;;1.70;100.00;151805.00;4974643;28;20800;-75
2022/01/11 07:04:59;;;;;;;27.33;21.20;;;;;;;1.80;100.00;151829.44;4977244;28;20898;-75
2022/01/11 07:07:35;;;;;;;29.63;21.03;;;;;;;1.82;100.00;151835.88;4960209;28;20481;-75
2022/01/11 07:10:11;;;;;;;26.30;20.50;;;;;;;1.80;100.00;151830.69;4965821;28;20461;-75
2022/01/11 07:12:46;;;;;;;32.00;20.40;;;;;;;1.80;100.00;151829.44;4994261;28;20950;-75
2022/01/11 07:15:22;;;;;;;26.60;19.87;;;;;;;1.81;100.00;151833.28;4978634;28;20470;-75
2022/01/11 07:17:58;;;;;;;27.57;18.60;;;;;;;1.82;100.00;151834.56;4974152;28;20599;-75
2022/01/11 07:20:37;;;;;;;28.30;18.73;;;;;;;1.89;100.00;151852.56;4972088;28;20570;-76
2022/01/11 07:23:13;;;;;;;29.10;19.60;;;;;;;1.91;100.00;151857.69;4974841;28;20439;-75
2022/01/11 07:25:50;;;;;;;23.03;17.90;;;;;;;1.98;100.00;151874.41;4960492;28;20438;-75
2022/01/11 07:28:27;;;;;;;25.70;17.70;;;;;;;2.00;100.00;151880.84;4968729;28;20450;-75
2022/01/11 07:31:03;;;;;;;27.70;17.67;;;;;;;2.07;100.00;151897.53;4978135;28;20745;-75
2022/01/11 07:33:41;;;;;;;26.47;16.93;;;;;;;2.01;100.00;151883.44;4978528;28;20439;-75
2022/01/11 07:36:19;;;;;;;27.13;19.63;;;;;;;1.91;100.00;151856.44;4993012;28;20463;-75
2022/01/11 07:38:59;;;;;;;26.67;18.53;;;;;;;1.91;100.00;151856.44;4978602;28;20451;-76
2022/01/11 07:41:40;;;;;;;26.77;18.93;;;;;;;1.92;100.00;151858.97;4977585;28;20446;-75
2022/01/11 07:44:20;;;;;;;24.17;18.43;;;;;;;1.95;100.00;151868.00;4992545;28;20437;-75
2022/01/11 07:46:56;;;;;;;28.10;19.60;;;;;;;1.93;100.00;151862.88;4976403;28;20443;-75
2022/01/11 07:49:40;;;;;;;31.53;18.20;;;;;;;1.89;100.00;151852.56;4955976;28;20888;-75
2022/01/11 07:52:18;;;;;;;29.90;18.63;;;;;;;1.90;100.00;151855.16;4958727;28;20440;-76
2022/01/11 07:54:56;;;;;;;25.87;17.00;;;;;;;1.89;100.00;151852.56;4976556;28;20471;-75
2022/01/11 07:57:34;;;;;;;32.00;18.60;;;;;;;1.92;100.00;151860.28;4973625;28;20865;-75
2022/01/11 08:00:11;;;;;;;24.27;17.30;;;;;;;1.96;100.00;151870.53;4976943;28;20946;-77
2022/01/11 08:02:53;;;;;;;24.77;18.30;;;;;;;1.93;100.00;151862.88;4981652;28;20487;-76
2022/01/11 08:05:54;;;;;;;27.60;18.30;;;;;;;2.05;100.00;151892.41;4987382;28;20453;-76
2022/01/11 08:08:33;;;;;;;24.73;17.80;;;;;;;2.05;100.00;151893.69;4959385;28;20443;-76
2022/01/11 08:11:11;;;;;;;28.67;18.10;;;;;;;2.04;100.00;151891.09;4961149;28;20459;-76
2022/01/11 08:13:47;;;;;;;24.17;17.67;;;;;;;2.05;100.00;151892.41;4978898;28;20457;-76
2022/01/11 08:16:22;;;;;;;26.03;17.07;;;;;;;2.06;100.00;151896.28;4963496;28;20505;-76
2022/01/11 08:19:00;;;;;;;25.80;17.70;;;;;;;2.08;100.00;151901.41;4975360;28;20438;-76
2022/01/11 08:21:36;;;;;;;24.73;17.20;;;;;;;2.13;100.00;151912.97;4975367;28;20758;-76
2022/01/11 08:24:14;;;;;;;31.77;17.97;;;;;;;2.11;100.00;151907.84;4969874;28;20453;-77
2022/01/11 08:26:51;;;;;;;29.53;18.20;;;;;;;2.06;100.00;151895.00;4956158;28;20469;-76
2022/01/11 08:29:27;;;;;;;25.60;18.13;;;;;;;2.04;100.00;151891.09;4972715;28;20536;-76
2022/01/11 08:32:08;;;;;;;23.77;17.80;;;;;;;2.05;100.00;151893.69;4968076;28;20813;-76
2022/01/11 08:34:45;;;;;;;25.63;17.77;;;;;;;2.06;100.00;151895.00;4980177;28;20455;-76
2022/01/11 08:37:21;;;;;;;28.70;18.13;;;;;;;2.06;100.00;151896.28;4974280;28;20436;-76
2022/01/11 08:40:00;;;;;;;22.70;17.73;;;;;;;2.11;100.00;151909.13;4975162;28;20489;-76
2022/01/11 08:42:36;;;;;;;29.13;19.10;;;;;;;2.16;100.00;151920.69;4974705;28;20490;-76
2022/01/11 08:45:12;;;;;;;27.50;18.77;;;;;;;2.12;100.00;151911.69;4989046;28;20431;-76
2022/01/11 08:47:52;;;;;;;25.40;17.93;;;;;;;2.14;100.00;151915.56;4973170;28;20783;-76
2022/01/11 08:50:28;;;;;;;26.37;17.87;;;;;;;2.14;100.00;151915.56;4975280;28;20436;-76
2022/01/11 08:53:04;;;;;;;28.03;17.83;;;;;;;2.12;100.00;151910.44;4990505;28;20450;-76
2022/01/11 08:55:41;;;;;;;27.87;18.77;;;;;;;2.13;100.00;151914.25;4975508;28;20494;-76
2022/01/11 08:58:20;;;;;;;25.20;18.07;;;;;;;2.15;100.00;151918.09;4973915;28;20545;-76
2022/01/11 09:00:56;;;;;;;27.83;16.90;;;;;;;2.20;100.00;151932.25;4970297;28;20485;-76
2022/01/11 09:03:33;;;;;;;30.00;19.40;;;;;;;2.22;100.00;151936.13;4957956;28;20458;-76
2022/01/11 09:06:09;;;;;;;28.83;20.43;;;;;;;2.24;100.00;151942.56;4959571;28;20862;-77
2022/01/11 09:08:46;;;;;;;26.87;20.10;;;;;;;2.24;100.00;151942.56;4981597;28;20491;-76
2022/01/11 09:11:23;;;;;;;27.40;20.90;;;;;;;2.28;100.00;151952.81;4974338;28;20540;-77
2022/01/11 09:14:00;;;;;;;32.97;20.07;;;;;;;2.29;100.00;151955.41;4974321;28;20447;-77
2022/01/11 09:16:36;;;;;;;24.50;18.37;;;;;;;2.29;100.00;151955.41;4973034;28;20477;-77
2022/01/11 09:19:13;;;;;;;29.47;19.97;;;;;;;2.33;100.00;151965.66;4974094;28;20466;-76
2022/01/11 09:21:49;;;;;;;24.90;17.50;;;;;;;2.42;100.00;151988.84;4966499;28;20444;-77
2022/01/11 09:24:29;;;;;;;21.90;16.70;;;;;;;2.38;100.00;151978.53;4978213;28;20840;-76
2022/01/11 09:27:07;;;;;;;22.73;16.23;;;;;;;2.46;100.00;151999.09;4955616;28;20448;-76
2022/01/11 09:29:45;;;;;;;27.70;16.43;;;;;;;2.36;100.00;151973.41;4968515;28;20459;-77
2022/01/11 09:32:24;;;;;;;21.27;16.27;;;;;;;2.45;100.00;151995.28;4971829;28;20787;-76
2022/01/11 09:35:00;;;;;;;21.63;15.80;;;;;;;2.61;100.00;152035.13;4988418;28;20451;-76
2022/01/11 09:37:37;;;;;;;21.10;15.63;;;;;;;2.58;100.00;152027.41;4969993;28;20452;-76
2022/01/11 09:40:13;;;;;;;20.47;15.83;;;;;;;2.58;100.00;152027.41;4973965;28;20434;-76
2022/01/11 09:42:53;;;;;;;22.03;17.37;;;;;;;2.63;100.00;152041.56;4983238;28;20443;-76
2022/01/11 09:45:29;;;;;;;24.03;17.00;;;;;;;2.54;100.00;152018.44;4987666;28;20533;-76
2022/01/11 09:48:05;;;;;;;24.37;17.80;;;;;;;2.54;100.00;152017.16;4972004;28;20459;-76
2022/01/11 09:50:47;;;;;;;24.13;18.13;;;;;;;2.54;100.00;152018.44;5005416;28;20485;-76
2022/01/11 09:53:23;;;;;;;22.27;17.17;;;;;;;2.60;100.00;152033.84;4985007;28;20544;-77
2022/01/11 09:56:04;;;;;;;21.87;16.27;;;;;;;2.53;100.00;152014.56;4989455;28;20461;-76
2022/01/11 09:58:43;;;;;;;22.33;15.30;;;;;;;2.54;100.00;152017.16;4972575;28;20483;-77
2022/01/11 10:01:38;;;;;;;23.13;16.17;;;;;;;2.52;100.00;152013.25;4990972;28;20486;-76
2022/01/11 10:04:18;;;;;;;26.07;18.77;;;;;;;2.57;100.00;152026.13;4991587;28;20459;-77
2022/01/11 10:07:11;;;;;;;26.47;17.23;;;;;;;2.63;100.00;152041.56;4973284;28;20475;-76
2022/01/11 10:09:50;;;;;;;22.23;15.10;;;;;;;2.73;100.00;152065.97;4960644;28;20458;-76
2022/01/11 10:12:34;;;;;;;17.13;14.10;;;;;;;2.68;100.00;152053.13;4975161;28;20464;-76
2022/01/11 10:15:12;;;;;;;22.67;16.03;;;;;;;2.70;100.00;152058.31;4974706;28;20534;-76
2022/01/11 10:17:48;;;;;;;23.17;16.17;;;;;;;2.77;100.00;152076.28;4970551;28;20499;-76
2022/01/11 10:20:28;;;;;;;21.67;15.97;;;;;;;2.74;100.00;152069.88;4965709;28;20450;-77
2022/01/11 10:23:33;;;;;;;21.53;15.93;;;;;;;2.81;100.00;152086.56;4971982;28;20773;-76
2022/01/11 10:26:08;;;;;;;21.93;14.87;;;;;;;2.88;100.00;152104.59;5000532;28;20846;-76
2022/01/11 10:28:44;;;;;;;24.10;15.70;;;;;;;2.85;100.00;152096.88;4985264;28;20791;-77
2022/01/11 10:31:57;;;;;;;21.13;14.60;;;;;;;2.92;100.00;152114.88;4973781;28;20525;-76
2022/01/11 10:34:52;;;;;;;19.30;13.20;;;;;;;2.88;100.00;152105.91;4978414;28;20467;-77
2022/01/11 10:37:31;;;;;;;21.13;14.90;;;;;;;2.89;100.00;152107.16;4983593;28;20464;-77
2022/01/11 10:40:11;;;;;;;21.90;14.63;;;;;;;2.89;100.00;152108.44;4986392;28;20446;-76
2022/01/11 10:42:49;;;;;;;20.07;12.77;;;;;;;3.02;100.00;152140.59;4974985;28;20455;-76
2022/01/11 10:45:27;;;;;;;18.13;13.03;;;;;;;3.00;100.00;152135.47;4975153;28;20429;-77
2022/01/11 10:48:12;;;;;;;21.57;13.70;;;;;;;3.06;100.00;152150.91;4967929;28;20548;-76
2022/01/11 10:50:51;;;;;;;18.50;13.27;;;;;;;3.11;100.00;152162.47;4965546;28;20451;-77
2022/01/11 10:53:38;;;;;;;16.43;12.00;;;;;;;3.12;99.76;152165.06;4990882;28;20451;-77
2022/01/11 11:00:45;;;;;;;17.63;11.30;;;;;;;3.22;96.54;152192.09;4877370;29;20565;-77
2022/01/11 11:03:22;;;;;;;16.90;12.40;;;;;;;3.23;98.51;152194.63;4960323;28;20963;-77
2022/01/11 11:06:10;;;;;;;14.80;11.40;;;;;;;3.28;97.99;152207.56;4976640;28;20997;-77
2022/01/11 11:08:48;;;;;;;16.87;11.10;;;;;;;3.32;96.93;152217.81;4977545;28;20447;-76
2022/01/11 11:11:32;;;;;;;14.10;11.37;;;;;;;3.26;95.46;152202.38;4977991;28;20877;-76
2022/01/11 11:14:53;;;;;;;16.00;10.30;;;;;;;3.35;94.98;152225.56;4974564;28;20443;-77
2022/01/11 11:17:32;;;;;;;13.10;10.00;;;;;;;3.35;95.87;152224.25;4978853;28;20510;-76
2022/01/11 11:20:11;;;;;;;12.57;10.20;;;;;;;3.42;91.21;152242.25;4976101;28;20513;-77
2022/01/11 11:22:49;;;;;;;15.00;10.33;;;;;;;3.42;92.66;152243.56;4965444;28;20962;-76
2022/01/11 11:25:24;;;;;;;14.03;9.73;;;;;;;3.53;92.57;152271.88;4972782;28;20440;-76
2022/01/11 11:28:00;;;;;;;13.30;10.60;;;;;;;3.61;92.78;152292.47;4973236;28;20542;-77
2022/01/11 11:30:35;;;;;;;12.40;9.37;;;;;;;3.64;91.98;152298.91;4992530;28;20438;-76
2022/01/11 11:33:11;;;;;;;12.73;9.20;;;;;;;3.66;92.66;152304.06;4992962;28;20440;-76
2022/01/11 11:35:49;;;;;;;16.23;9.80;;;;;;;3.62;92.17;152295.06;4993177;28;20499;-76
2022/01/11 11:38:30;;;;;;;12.63;9.37;;;;;;;3.68;90.43;152309.19;4979169;28;20449;-76
2022/01/11 11:41:06;;;;;;;8.80;7.30;;;;;;;3.63;89.91;152297.63;5001941;28;20438;-76
2022/01/11 11:43:41;;;;;;;12.23;9.00;;;;;;;3.69;89.48;152311.78;4990972;28;20480;-76
2022/01/11 11:46:44;;;;;;;7.80;5.70;;;;;;;3.61;82.99;152291.19;4977062;28;20448;-76
2022/01/11 11:49:42;;;;;;;5.87;4.20;;;;;;;3.62;81.31;152295.06;4977755;28;20958;-76
2022/01/11 11:52:20;;;;;;;5.20;4.20;;;;;;;3.70;80.73;152314.38;4992848;28;20555;-76
2022/01/11 11:55:00;;;;;;;6.67;3.60;;;;;;;3.71;79.45;152315.69;4977810;28;20456;-76
2022/01/11 11:57:37;;;;;;;4.20;3.20;;;;;;;3.64;78.79;152298.91;4992458;28;20478;-76
2022/01/11 12:00:17;;;;;;;4.63;3.33;;;;;;;3.61;77.61;152292.47;4976433;28;20439;-77
2022/01/11 12:02:54;;;;;;;7.83;4.30;;;;;;;3.67;77.64;152307.94;4964058;28;20532;-76
2022/01/11 12:05:37;;;;;;;4.37;3.67;;;;;;;3.56;77.41;152278.31;4992664;28;20447;-76
2022/01/11 12:08:33;;;;;;;6.33;3.63;;;;;;;3.63;78.27;152296.31;4992994;28;20494;-76